Time;durP1;ratioP1;P1;durP2;ratioP2;P2;SDS_P1;SDS_P2;PMS_P1;PMS_P2;Temp;Humidity;BMP_temperature;BMP_pressure;BME280_temperature;BME280_humidity;BME280_pressure;Samples;Min_cycle;Max_cycle;Signal;HPM_P1;HPM_P2
2023/05/31 00:01:16;;;;;;;5.60;4.63;;;10.20;99.90;;;;;;6187282;23;20410;-45
2023/05/31 00:03:43;;;;;;;5.55;4.90;;;10.10;99.90;;;;;;6214090;23;20345;-45
2023/05/31 00:06:12;;;;;;;6.90;4.65;;;10.10;99.90;;;;;;6214070;23;20016;-44
2023/05/31 00:08:39;;;;;;;9.38;5.25;;;10.10;99.90;;;;;;6187279;23;20371;-42
2023/05/31 00:11:06;;;;;;;8.07;4.60;;;10.10;99.90;;;;;;6213889;23;20016;-44
2023/05/31 00:13:32;;;;;;;6.90;4.82;;;10.00;99.90;;;;;;6187388;23;20055;-43
2023/05/31 00:15:58;;;;;;;8.20;5.25;;;10.00;99.90;;;;;;6213765;23;20453;-47
2023/05/31 00:18:23;;;;;;;7.55;5.00;;;10.00;99.90;;;;;;6213726;23;20101;-44
2023/05/31 00:20:49;;;;;;;6.60;4.82;;;10.00;99.90;;;;;;6213761;23;20096;-43
2023/05/31 00:23:15;;;;;;;5.03;4.45;;;10.00;99.90;;;;;;6213698;23;20044;-44
2023/05/31 00:25:41;;;;;;;7.63;5.10;;;9.90;99.90;;;;;;6213825;23;20126;-45
2023/05/31 00:28:06;;;;;;;6.82;4.65;;;9.90;99.90;;;;;;6214700;23;20090;-47
2023/05/31 00:30:32;;;;;;;8.05;4.80;;;9.90;99.90;;;;;;6216016;23;20044;-46
2023/05/31 00:32:58;;;;;;;8.20;4.75;;;9.90;99.90;;;;;;6215779;23;20064;-47
2023/05/31 00:35:23;;;;;;;5.70;5.00;;;9.90;99.90;;;;;;6215500;23;20016;-43
2023/05/31 00:37:49;;;;;;;9.77;5.70;;;9.90;99.90;;;;;;6211394;23;20024;-45
2023/05/31 00:40:15;;;;;;;7.20;5.32;;;9.80;99.90;;;;;;6211822;23;20013;-43
2023/05/31 00:42:40;;;;;;;6.60;5.15;;;9.80;99.90;;;;;;6185951;23;20180;-45
2023/05/31 00:45:07;;;;;;;6.88;4.63;;;9.80;99.90;;;;;;6215560;23;20032;-45
2023/05/31 00:47:34;;;;;;;7.63;5.28;;;9.80;99.90;;;;;;6215865;23;20098;-44
2023/05/31 00:50:00;;;;;;;11.52;6.30;;;9.80;99.90;;;;;;6215319;23;20437;-46
2023/05/31 00:52:27;;;;;;;8.35;5.82;;;9.80;99.90;;;;;;6215829;23;20016;-46
2023/05/31 00:54:53;;;;;;;7.97;6.27;;;9.80;99.90;;;;;;6215789;23;20008;-45
2023/05/31 00:57:19;;;;;;;7.68;6.10;;;9.70;99.90;;;;;;6215488;23;20387;-43
2023/05/31 00:59:45;;;;;;;8.07;5.57;;;9.70;99.90;;;;;;6215253;23;20015;-44
2023/05/31 01:02:11;;;;;;;7.78;5.90;;;9.70;99.90;;;;;;6215510;23;20471;-47
2023/05/31 01:04:37;;;;;;;8.05;5.95;;;9.70;99.90;;;;;;6215647;23;20016;-44
2023/05/31 01:07:03;;;;;;;9.13;5.97;;;9.70;99.90;;;;;;6215462;23;20016;-43
2023/05/31 01:09:30;;;;;;;10.55;6.85;;;9.70;99.90;;;;;;6215596;23;20031;-42
2023/05/31 01:12:21;;;;;;;9.07;6.65;;;9.60;99.90;;;;;;6215524;23;20016;-46
2023/05/31 01:15:07;;;;;;;9.02;6.40;;;9.60;99.90;;;;;;6215550;23;20143;-43
2023/05/31 01:18:10;;;;;;;9.57;6.72;;;9.60;99.90;;;;;;6215660;23;20318;-42
2023/05/31 01:20:39;;;;;;;7.57;6.03;;;9.60;99.90;;;;;;6188149;23;20020;-43
2023/05/31 01:23:23;;;;;;;8.45;6.35;;;9.60;99.90;;;;;;6215232;23;20013;-44
2023/05/31 01:26:25;;;;;;;8.13;6.18;;;9.60;99.90;;;;;;6215666;23;20043;-43
2023/05/31 01:28:55;;;;;;;9.00;6.60;;;9.60;99.90;;;;;;6215715;23;20017;-43
2023/05/31 01:31:21;;;;;;;9.05;6.90;;;9.50;99.90;;;;;;6216251;23;20381;-43
2023/05/31 01:33:48;;;;;;;10.00;7.07;;;9.50;99.90;;;;;;6215198;23;20012;-47
2023/05/31 01:36:14;;;;;;;10.23;6.70;;;9.50;99.90;;;;;;6188137;23;20024;-44
2023/05/31 01:38:40;;;;;;;12.52;6.63;;;9.50;99.90;;;;;;6214713;23;20009;-45
2023/05/31 01:41:07;;;;;;;10.35;6.63;;;9.40;99.90;;;;;;6214571;23;20357;-44
2023/05/31 01:43:36;;;;;;;13.93;7.28;;;9.40;99.90;;;;;;6214367;23;20017;-44
2023/05/31 01:46:04;;;;;;;11.43;6.88;;;9.40;99.90;;;;;;6210706;23;20118;-43
2023/05/31 01:48:30;;;;;;;9.70;6.95;;;9.40;99.90;;;;;;6210773;23;20013;-45
2023/05/31 01:50:58;;;;;;;13.43;7.00;;;9.40;99.90;;;;;;6185545;23;20044;-47
2023/05/31 01:53:25;;;;;;;11.77;7.38;;;9.40;99.90;;;;;;6214862;23;20016;-44
2023/05/31 01:55:51;;;;;;;9.73;6.82;;;9.40;99.90;;;;;;6188138;23;20016;-43
2023/05/31 01:58:18;;;;;;;8.65;7.32;;;9.30;99.90;;;;;;6214119;23;20035;-44
2023/05/31 02:00:44;;;;;;;11.15;7.47;;;9.30;99.90;;;;;;6215506;23;20080;-44
2023/05/31 02:03:11;;;;;;;13.25;7.40;;;9.30;99.90;;;;;;6210943;23;20122;-45
2023/05/31 02:05:36;;;;;;;9.93;6.68;;;9.30;99.90;;;;;;6209812;23;20051;-45
2023/05/31 02:08:02;;;;;;;9.57;7.10;;;9.30;99.90;;;;;;6211419;23;20023;-42
2023/05/31 02:10:28;;;;;;;12.55;7.25;;;9.20;99.90;;;;;;6215151;23;20012;-44
2023/05/31 02:12:54;;;;;;;11.52;8.27;;;9.20;99.90;;;;;;6215275;23;20013;-44
2023/05/31 02:15:20;;;;;;;8.25;7.10;;;9.20;99.90;;;;;;6215238;23;20035;-46
2023/05/31 02:17:50;;;;;;;11.50;7.03;;;9.10;99.90;;;;;;6214923;23;20454;-47
2023/05/31 02:20:17;;;;;;;10.43;7.18;;;9.10;99.90;;;;;;6214957;23;20020;-44
2023/05/31 02:22:44;;;;;;;10.88;7.70;;;9.10;99.90;;;;;;6214786;23;20026;-43
2023/05/31 02:25:12;;;;;;;9.40;7.93;;;9.20;99.90;;;;;;6187961;23;20476;-44
2023/05/31 02:27:38;;;;;;;10.15;7.63;;;9.10;99.90;;;;;;6214472;23;20151;-45
2023/05/31 02:30:06;;;;;;;9.80;7.82;;;9.10;99.90;;;;;;6214734;23;20016;-46
2023/05/31 02:32:35;;;;;;;10.38;8.13;;;9.00;99.90;;;;;;6214129;23;20016;-44
2023/05/31 02:35:05;;;;;;;11.73;8.02;;;9.10;99.90;;;;;;6214813;23;20017;-43
2023/05/31 02:37:32;;;;;;;12.68;8.48;;;9.00;99.90;;;;;;6214060;23;20028;-46
2023/05/31 02:39:58;;;;;;;10.77;7.85;;;9.00;99.90;;;;;;6213804;23;20453;-45
2023/05/31 02:42:23;;;;;;;12.98;8.35;;;9.00;99.90;;;;;;6214050;23;20076;-44
2023/05/31 02:44:49;;;;;;;11.07;7.50;;;9.00;99.90;;;;;;6214659;23;20092;-43
2023/05/31 02:47:15;;;;;;;14.25;8.05;;;9.00;99.90;;;;;;6214317;23;20020;-44
2023/05/31 02:49:41;;;;;;;13.73;8.35;;;9.00;99.90;;;;;;6214528;23;20020;-45
2023/05/31 02:52:07;;;;;;;11.90;8.40;;;9.00;99.90;;;;;;6211408;23;20039;-46
2023/05/31 02:54:32;;;;;;;12.30;8.35;;;9.00;99.90;;;;;;6210353;23;20016;-44
2023/05/31 02:56:59;;;;;;;12.32;8.75;;;9.00;99.90;;;;;;6211479;23;20024;-44
2023/05/31 02:59:25;;;;;;;14.35;9.00;;;9.00;99.90;;;;;;6215588;23;20103;-46
2023/05/31 03:01:51;;;;;;;12.80;9.18;;;9.00;99.90;;;;;;6214418;23;20445;-44
2023/05/31 03:04:16;;;;;;;15.57;9.23;;;9.00;99.90;;;;;;6214447;23;20149;-45
2023/05/31 03:06:42;;;;;;;14.55;9.30;;;8.90;99.90;;;;;;6214399;23;20020;-46
2023/05/31 03:09:08;;;;;;;12.82;8.80;;;8.90;99.90;;;;;;6214083;23;20027;-47
2023/05/31 03:11:33;;;;;;;11.88;8.95;;;8.80;99.90;;;;;;6211062;23;20062;-45
2023/05/31 03:13:59;;;;;;;13.30;8.85;;;8.80;99.90;;;;;;6210417;23;20703;-45
2023/05/31 03:16:25;;;;;;;14.20;9.70;;;8.80;99.90;;;;;;6187411;23;20019;-45
2023/05/31 03:18:51;;;;;;;14.85;9.73;;;8.80;99.90;;;;;;6214289;23;20515;-46
2023/05/31 03:21:17;;;;;;;14.70;9.27;;;8.90;99.90;;;;;;6214323;23;20366;-44
2023/05/31 03:23:42;;;;;;;13.20;9.10;;;8.80;99.90;;;;;;6214308;23;20337;-44
2023/05/31 03:26:11;;;;;;;13.02;9.35;;;8.90;99.90;;;;;;6188425;23;20059;-46
2023/05/31 03:28:36;;;;;;;14.35;8.23;;;8.90;99.90;;;;;;6187173;23;20313;-45
2023/05/31 03:31:02;;;;;;;18.40;9.00;;;8.90;99.90;;;;;;6213461;23;20075;-45
2023/05/31 03:33:28;;;;;;;14.43;9.07;;;8.90;99.90;;;;;;6186385;23;20016;-45
2023/05/31 03:35:53;;;;;;;15.55;9.45;;;8.90;99.90;;;;;;6212291;23;20139;-46
2023/05/31 03:38:19;;;;;;;13.93;9.05;;;8.90;99.90;;;;;;6212847;23;20048;-45
2023/05/31 03:40:45;;;;;;;15.63;8.98;;;8.90;99.90;;;;;;6212983;23;20043;-45
2023/05/31 03:43:10;;;;;;;18.70;9.55;;;9.00;99.90;;;;;;6213560;23;20012;-43
2023/05/31 03:45:36;;;;;;;14.23;8.90;;;9.00;99.90;;;;;;6213715;23;20012;-44
2023/05/31 03:48:01;;;;;;;15.85;9.90;;;9.00;99.90;;;;;;6212793;23;20027;-45
2023/05/31 03:50:27;;;;;;;15.45;9.75;;;9.00;99.90;;;;;;6213692;23;20016;-43
2023/05/31 03:52:53;;;;;;;17.33;10.38;;;9.00;99.90;;;;;;6213457;23;20012;-46
2023/05/31 03:55:20;;;;;;;18.23;10.77;;;9.10;99.90;;;;;;6216241;23;20012;-47
2023/05/31 03:57:46;;;;;;;18.30;10.97;;;9.10;99.90;;;;;;6214072;23;20302;-46
2023/05/31 04:00:12;;;;;;;19.00;10.63;;;9.10;99.90;;;;;;6213115;23;20016;-41
2023/05/31 04:02:38;;;;;;;18.63;11.05;;;9.10;99.90;;;;;;6214211;23;20367;-44
2023/05/31 04:05:05;;;;;;;17.42;11.60;;;9.20;99.90;;;;;;6212756;23;20440;-42
2023/05/31 04:07:31;;;;;;;18.70;11.38;;;9.20;99.90;;;;;;6213669;23;20016;-42
2023/05/31 04:09:57;;;;;;;18.35;10.52;;;9.30;99.90;;;;;;6213657;23;20009;-42
2023/05/31 04:12:22;;;;;;;14.43;9.95;;;9.30;99.90;;;;;;6214601;23;20030;-43
2023/05/31 04:14:48;;;;;;;17.02;10.30;;;9.40;99.90;;;;;;6189228;23;20017;-43
2023/05/31 04:17:14;;;;;;;16.77;10.45;;;9.40;99.90;;;;;;6216755;23;20020;-42
2023/05/31 04:19:39;;;;;;;17.85;10.82;;;9.50;99.90;;;;;;6211693;23;20095;-42
2023/05/31 04:22:06;;;;;;;16.25;10.48;;;9.50;99.90;;;;;;6185186;23;20020;-42
2023/05/31 04:24:32;;;;;;;17.73;9.60;;;9.60;99.90;;;;;;6213841;23;20024;-42
2023/05/31 04:26:57;;;;;;;18.73;10.07;;;9.70;99.90;;;;;;6213540;23;20345;-44
2023/05/31 04:29:25;;;;;;;15.85;9.63;;;9.80;99.90;;;;;;6214359;23;20028;-43
2023/05/31 04:31:51;;;;;;;17.55;10.25;;;9.90;99.90;;;;;;6213084;23;20020;-42
2023/05/31 04:34:18;;;;;;;17.92;9.52;;;10.50;99.90;;;;;;6214020;23;20012;-44
2023/05/31 04:36:48;;;;;;;13.88;8.43;;;11.40;99.90;;;;;;6213180;23;20096;-42
2023/05/31 04:39:19;;;;;;;14.43;9.13;;;12.20;99.90;;;;;;6213795;23;20066;-42
2023/05/31 04:41:45;;;;;;;13.02;7.93;;;12.90;99.90;;;;;;6213603;23;20017;-44
2023/05/31 04:44:11;;;;;;;17.50;9.10;;;13.50;99.90;;;;;;6213832;23;20028;-43
2023/05/31 04:46:40;;;;;;;14.75;8.43;;;13.80;99.90;;;;;;6213888;23;20020;-47
2023/05/31 04:49:06;;;;;;;11.98;8.10;;;14.60;99.90;;;;;;6213691;23;20004;-43
2023/05/31 04:51:32;;;;;;;14.52;8.80;;;14.40;99.90;;;;;;6212947;23;20094;-42
2023/05/31 04:53:58;;;;;;;13.18;8.65;;;15.20;99.90;;;;;;6186772;23;20455;-44
2023/05/31 04:56:25;;;;;;;16.23;8.20;;;15.60;99.90;;;;;;6213292;23;20019;-42
2023/05/31 04:58:51;;;;;;;12.75;8.02;;;16.00;99.90;;;;;;6217247;23;20020;-43
2023/05/31 05:01:17;;;;;;;13.75;8.52;;;16.60;99.90;;;;;;6213890;23;20024;-43
2023/05/31 05:03:44;;;;;;;11.25;7.95;;;16.70;99.90;;;;;;6213565;23;20088;-43
2023/05/31 05:06:15;;;;;;;13.03;8.13;;;17.20;99.90;;;;;;6213419;23;20019;-43
2023/05/31 05:08:41;;;;;;;10.65;7.75;;;17.50;99.90;;;;;;6214047;23;20028;-43
2023/05/31 05:11:07;;;;;;;11.38;7.72;;;18.00;99.90;;;;;;6213911;23;20310;-43
2023/05/31 05:13:33;;;;;;;12.00;8.00;;;18.20;99.90;;;;;;6188236;23;20013;-43
2023/05/31 05:15:58;;;;;;;12.35;7.35;;;18.10;99.90;;;;;;6212223;23;20013;-43
2023/05/31 05:18:24;;;;;;;10.35;7.18;;;17.80;99.90;;;;;;6212827;23;20009;-46
2023/05/31 05:20:49;;;;;;;10.00;8.05;;;18.20;99.90;;;;;;6184629;23;20082;-44
2023/05/31 05:23:16;;;;;;;9.70;7.57;;;18.10;99.90;;;;;;6185347;23;20024;-44
2023/05/31 05:25:42;;;;;;;12.60;7.55;;;18.20;99.90;;;;;;6213657;23;20337;-43
2023/05/31 05:28:07;;;;;;;10.00;7.13;;;18.50;99.90;;;;;;6213308;23;20020;-43
2023/05/31 05:30:33;;;;;;;11.05;7.28;;;18.50;99.90;;;;;;6214984;23;20035;-43
2023/05/31 05:32:58;;;;;;;10.93;7.57;;;18.90;99.90;;;;;;6215364;23;20097;-43
2023/05/31 05:35:24;;;;;;;8.98;6.93;;;18.70;99.90;;;;;;6214697;23;20021;-43
2023/05/31 05:37:50;;;;;;;10.80;7.10;;;18.90;99.90;;;;;;6188178;23;20017;-45
2023/05/31 05:40:16;;;;;;;11.57;6.82;;;19.10;99.90;;;;;;6188146;23;20013;-45
2023/05/31 05:42:42;;;;;;;10.23;7.00;;;19.20;99.90;;;;;;6214848;23;20017;-47
2023/05/31 05:45:08;;;;;;;10.65;7.22;;;19.00;99.90;;;;;;6188671;23;20023;-44
2023/05/31 05:47:35;;;;;;;10.02;7.00;;;19.20;99.90;;;;;;6215155;23;20035;-43
2023/05/31 05:50:01;;;;;;;10.90;7.00;;;;;;;;;;6189070;23;20012;-44
2023/05/31 05:52:27;;;;;;;10.63;7.03;;;19.80;99.90;;;;;;6189667;23;20039;-44
2023/05/31 05:54:53;;;;;;;12.65;7.22;;;20.50;99.90;;;;;;6215624;23;20436;-44
2023/05/31 05:57:19;;;;;;;11.00;7.50;;;20.50;99.90;;;;;;6188874;23;20314;-43
2023/05/31 05:59:44;;;;;;;10.48;7.40;;;20.10;99.90;;;;;;6217155;23;20031;-46
2023/05/31 06:02:11;;;;;;;10.60;7.72;;;19.90;99.90;;;;;;6189402;23;20352;-44
2023/05/31 06:04:37;;;;;;;10.63;6.90;;;20.00;99.90;;;;;;6214927;23;20075;-44
2023/05/31 06:07:03;;;;;;;10.35;7.15;;;20.60;99.90;;;;;;6215116;23;20017;-43
2023/05/31 06:09:29;;;;;;;9.52;7.18;;;20.50;99.90;;;;;;6214789;23;20068;-42
2023/05/31 06:11:54;;;;;;;9.10;6.97;;;20.40;99.90;;;;;;6214632;23;20028;-44
2023/05/31 06:14:20;;;;;;;10.93;7.15;;;20.60;99.90;;;;;;6213825;23;20016;-43
2023/05/31 06:16:45;;;;;;;11.10;7.00;;;20.40;99.90;;;;;;6214780;23;20017;-44
2023/05/31 06:19:11;;;;;;;8.68;6.35;;;20.50;99.90;;;;;;6187091;23;20017;-49
2023/05/31 06:21:37;;;;;;;8.77;6.65;;;20.00;99.90;;;;;;6214036;23;20044;-45
2023/05/31 06:24:04;;;;;;;9.15;7.00;;;20.40;99.90;;;;;;6213850;23;20024;-46
2023/05/31 06:26:30;;;;;;;11.77;7.10;;;20.20;99.90;;;;;;6212603;23;20027;-45
2023/05/31 06:28:59;;;;;;;8.82;6.15;;;20.60;99.90;;;;;;6214029;23;20355;-45
2023/05/31 06:31:26;;;;;;;12.10;7.15;;;20.60;99.90;;;;;;6212754;23;20025;-43
2023/05/31 06:33:51;;;;;;;11.43;6.97;;;21.10;99.90;;;;;;6213944;23;20326;-44
2023/05/31 06:36:17;;;;;;;9.65;6.25;;;20.70;99.90;;;;;;6210424;23;20031;-45
2023/05/31 06:38:42;;;;;;;11.23;6.90;;;21.30;99.90;;;;;;6209821;23;20013;-44
2023/05/31 06:41:09;;;;;;;10.73;7.13;;;21.20;99.90;;;;;;6214556;23;20341;-44
2023/05/31 06:43:35;;;;;;;10.55;6.63;;;20.70;99.90;;;;;;6214558;23;20336;-44
2023/05/31 06:46:01;;;;;;;8.88;6.72;;;20.60;99.90;;;;;;6214504;23;20084;-44
2023/05/31 06:48:26;;;;;;;10.95;6.65;;;20.80;99.90;;;;;;6162642;23;20534;-45
2023/05/31 06:50:52;;;;;;;8.57;6.55;;;20.50;99.90;;;;;;6214462;23;20067;-44
2023/05/31 06:53:17;;;;;;;10.80;6.25;;;20.90;99.90;;;;;;6214062;23;20383;-43
2023/05/31 06:55:43;;;;;;;10.48;6.32;;;21.10;99.90;;;;;;6215058;23;20008;-45
2023/05/31 06:58:10;;;;;;;8.48;6.32;;;21.10;99.90;;;;;;6187474;23;20021;-44
2023/05/31 07:00:35;;;;;;;11.80;7.13;;;21.10;99.90;;;;;;6214540;23;20429;-44
2023/05/31 07:03:01;;;;;;;11.40;6.40;;;20.60;99.90;;;;;;6214783;23;20083;-44
2023/05/31 07:05:28;;;;;;;10.73;6.30;;;21.20;99.90;;;;;;6214340;23;20051;-43
2023/05/31 07:07:54;;;;;;;10.07;6.90;;;21.10;99.90;;;;;;6213959;23;20449;-45
2023/05/31 07:10:20;;;;;;;11.18;6.60;;;21.50;99.90;;;;;;6214382;23;20066;-43
2023/05/31 07:12:45;;;;;;;10.65;6.55;;;21.20;99.90;;;;;;6162936;23;20512;-44
2023/05/31 07:15:11;;;;;;;9.48;6.28;;;21.00;99.90;;;;;;6215241;23;20012;-45
2023/05/31 07:17:37;;;;;;;9.30;6.38;;;20.80;99.90;;;;;;6185722;23;20339;-46
2023/05/31 07:20:05;;;;;;;11.88;7.13;;;20.80;99.90;;;;;;6209800;23;20052;-49
2023/05/31 07:22:30;;;;;;;11.45;6.05;;;21.00;99.90;;;;;;6207922;23;20102;-43
2023/05/31 07:24:57;;;;;;;10.18;6.50;;;21.10;99.90;;;;;;6181587;23;20017;-45
2023/05/31 07:27:22;;;;;;;9.52;6.35;;;21.10;99.90;;;;;;6206857;23;20396;-44
2023/05/31 07:29:48;;;;;;;10.00;6.85;;;20.90;99.90;;;;;;6207648;23;20012;-42
2023/05/31 07:32:14;;;;;;;8.93;5.18;;;20.70;99.90;;;;;;6208204;23;20025;-43
2023/05/31 07:34:39;;;;;;;8.57;6.28;;;20.60;99.90;;;;;;6207586;23;20052;-45
2023/05/31 07:37:07;;;;;;;10.05;6.07;;;20.40;99.90;;;;;;6208511;23;20016;-42
2023/05/31 07:39:32;;;;;;;10.70;6.25;;;20.00;99.90;;;;;;6208228;23;20016;-46
2023/05/31 07:42:01;;;;;;;9.13;6.15;;;20.00;99.90;;;;;;6206290;23;20083;-42
2023/05/31 07:44:27;;;;;;;10.60;6.07;;;19.70;99.90;;;;;;6206444;23;20370;-42
2023/05/31 07:46:52;;;;;;;9.02;5.70;;;19.50;99.90;;;;;;6208975;23;20024;-42
2023/05/31 07:49:18;;;;;;;8.18;6.05;;;19.20;99.90;;;;;;6182209;23;20394;-43
2023/05/31 07:51:43;;;;;;;8.80;6.00;;;18.90;99.90;;;;;;6209020;23;20020;-45
2023/05/31 07:54:09;;;;;;;10.88;5.70;;;18.90;99.90;;;;;;6207376;23;20036;-42
2023/05/31 07:56:34;;;;;;;9.82;6.68;;;18.70;99.90;;;;;;6208036;23;20044;-43
2023/05/31 07:59:00;;;;;;;9.77;6.03;;;19.00;99.90;;;;;;6212282;23;20016;-43
2023/05/31 08:01:26;;;;;;;9.77;6.20;;;18.90;99.90;;;;;;6208541;23;20072;-42
2023/05/31 08:03:54;;;;;;;10.27;5.60;;;18.80;99.90;;;;;;6209440;23;20116;-42
2023/05/31 08:06:21;;;;;;;8.88;5.30;;;18.80;99.90;;;;;;6209337;23;20025;-41
2023/05/31 08:08:46;;;;;;;7.00;5.32;;;18.90;99.90;;;;;;6210126;23;20345;-42
2023/05/31 08:11:12;;;;;;;8.32;5.20;;;19.10;99.90;;;;;;6209299;23;20088;-43
2023/05/31 08:13:39;;;;;;;8.35;5.50;;;19.20;99.90;;;;;;6183069;23;20519;-42
2023/05/31 08:16:05;;;;;;;9.30;5.57;;;19.30;99.90;;;;;;6209243;23;20017;-43
2023/05/31 08:18:31;;;;;;;9.60;5.38;;;19.10;99.90;;;;;;6182600;23;20029;-42
2023/05/31 08:20:57;;;;;;;8.93;5.10;;;19.40;99.90;;;;;;6209421;23;20250;-43
2023/05/31 08:23:22;;;;;;;9.32;5.75;;;19.70;99.90;;;;;;6209468;23;20016;-43
2023/05/31 08:25:48;;;;;;;8.32;5.00;;;19.80;99.90;;;;;;6206178;23;20338;-43
2023/05/31 08:28:14;;;;;;;8.23;4.95;;;19.90;99.90;;;;;;6207813;23;20020;-45
2023/05/31 08:30:40;;;;;;;9.10;5.28;;;19.70;99.90;;;;;;6209231;23;20544;-45
2023/05/31 08:33:05;;;;;;;7.45;5.00;;;19.90;99.90;;;;;;6207242;23;20479;-44
2023/05/31 08:35:31;;;;;;;9.07;4.90;;;20.00;99.90;;;;;;6210691;23;20503;-45
2023/05/31 08:37:57;;;;;;;7.45;4.70;;;20.00;99.90;;;;;;6212016;23;20009;-43
2023/05/31 08:40:24;;;;;;;10.30;5.43;;;20.00;99.90;;;;;;6182225;23;20062;-44
2023/05/31 08:42:49;;;;;;;12.55;5.32;;;20.30;99.90;;;;;;6182088;23;20024;-47
2023/05/31 08:45:17;;;;;;;9.45;5.13;;;20.40;99.90;;;;;;6208788;23;20024;-44
2023/05/31 08:47:45;;;;;;;9.77;5.40;;;20.50;99.90;;;;;;6209012;23;20021;-43
2023/05/31 08:50:12;;;;;;;7.45;5.03;;;20.70;99.90;;;;;;6209465;23;20062;-44
2023/05/31 08:52:38;;;;;;;9.53;4.90;;;20.60;99.90;;;;;;6182877;23;20024;-46
2023/05/31 08:55:04;;;;;;;8.45;4.80;;;20.50;99.90;;;;;;6209987;23;20388;-45
2023/05/31 08:57:31;;;;;;;9.40;4.55;;;20.60;99.90;;;;;;6211957;23;20087;-46
2023/05/31 08:59:58;;;;;;;7.23;4.50;;;20.40;99.90;;;;;;6184108;23;20020;-44
2023/05/31 09:02:24;;;;;;;13.68;4.80;;;20.60;99.90;;;;;;6212158;23;20263;-43
2023/05/31 09:04:51;;;;;;;6.35;5.00;;;20.60;99.90;;;;;;6212735;23;20473;-44
2023/05/31 09:07:17;;;;;;;7.20;4.50;;;20.60;99.90;;;;;;6211433;23;20031;-43
2023/05/31 09:09:43;;;;;;;9.90;5.20;;;20.80;99.90;;;;;;6215598;23;20043;-44
2023/05/31 09:12:08;;;;;;;10.45;4.55;;;20.60;99.90;;;;;;6215794;23;20012;-45
2023/05/31 09:14:34;;;;;;;8.07;4.60;;;20.80;99.90;;;;;;6215129;23;20016;-45
2023/05/31 09:17:00;;;;;;;7.63;3.90;;;21.00;99.90;;;;;;6211714;23;20021;-44
2023/05/31 09:19:26;;;;;;;8.75;4.30;;;21.00;99.90;;;;;;6185454;23;20042;-42
2023/05/31 09:21:52;;;;;;;7.45;4.22;;;21.20;99.90;;;;;;6212312;23;20337;-43
2023/05/31 09:24:19;;;;;;;8.30;4.25;;;21.50;99.90;;;;;;6211106;23;20393;-44
2023/05/31 09:26:52;;;;;;;10.57;3.65;;;21.60;99.90;;;;;;6209465;23;20071;-44
2023/05/31 09:29:20;;;;;;;7.25;4.35;;;21.50;99.90;;;;;;6209415;23;20020;-43
2023/05/31 09:31:46;;;;;;;7.30;4.25;;;21.40;99.90;;;;;;6210126;23;20016;-43
2023/05/31 09:34:41;;;;;;;8.18;4.70;;;21.50;99.90;;;;;;6210239;23;20429;-43
2023/05/31 09:37:07;;;;;;;8.13;4.53;;;21.50;99.90;;;;;;6178094;23;20380;-44
2023/05/31 09:39:33;;;;;;;11.43;4.13;;;21.80;99.90;;;;;;6212215;23;20032;-43
2023/05/31 09:41:59;;;;;;;8.38;3.95;;;22.00;99.90;;;;;;6211432;23;20009;-45
2023/05/31 09:44:27;;;;;;;6.88;3.67;;;22.00;99.90;;;;;;6211178;23;20021;-43
2023/05/31 09:46:53;;;;;;;6.28;4.03;;;22.10;99.90;;;;;;6182655;23;20051;-45
2023/05/31 09:49:19;;;;;;;7.20;3.97;;;22.30;99.90;;;;;;6209684;23;20017;-45
2023/05/31 09:51:54;;;;;;;9.80;3.97;;;22.10;99.90;;;;;;6209371;23;20380;-45
2023/05/31 09:54:24;;;;;;;6.70;3.60;;;22.10;99.90;;;;;;6208837;23;20012;-45
2023/05/31 09:56:50;;;;;;;6.63;3.90;;;22.40;99.90;;;;;;6209077;23;20394;-43
2023/05/31 09:59:17;;;;;;;6.90;3.60;;;22.30;99.90;;;;;;6182865;23;20077;-43
2023/05/31 10:01:44;;;;;;;7.50;3.60;;;22.50;99.90;;;;;;6209478;23;20013;-43
2023/05/31 10:04:10;;;;;;;8.25;4.47;;;22.40;99.90;;;;;;6182359;23;20500;-43
2023/05/31 10:06:36;;;;;;;8.98;3.67;;;22.40;99.90;;;;;;6208516;23;20023;-44
2023/05/31 10:09:08;;;;;;;7.85;3.90;;;22.40;99.90;;;;;;6209124;23;20021;-43
2023/05/31 10:11:35;;;;;;;6.50;3.92;;;22.40;99.90;;;;;;6208560;23;20095;-43
2023/05/31 10:14:15;;;;;;;11.52;3.90;;;22.60;99.90;;;;;;6181842;23;20017;-44
2023/05/31 10:16:50;;;;;;;9.38;3.60;;;22.40;99.90;;;;;;6208565;23;20052;-44
2023/05/31 10:19:34;;;;;;;6.55;3.80;;;22.60;99.90;;;;;;6209513;23;20051;-44
2023/05/31 10:22:03;;;;;;;6.32;3.67;;;22.30;99.90;;;;;;6209011;23;20023;-43
2023/05/31 10:24:44;;;;;;;7.15;3.78;;;22.50;99.90;;;;;;6182803;23;20024;-45
2023/05/31 10:27:22;;;;;;;6.78;3.42;;;22.40;99.90;;;;;;6209182;23;20028;-43
2023/05/31 10:29:56;;;;;;;6.28;3.30;;;22.40;99.90;;;;;;6182160;23;20056;-43
2023/05/31 10:32:32;;;;;;;7.93;4.18;;;22.50;99.90;;;;;;6205574;23;20021;-44
2023/05/31 10:34:58;;;;;;;9.65;3.78;;;22.60;99.90;;;;;;6209920;23;20118;-43
2023/05/31 10:37:25;;;;;;;5.88;3.22;;;22.70;99.90;;;;;;6213535;23;20301;-44
2023/05/31 10:40:17;;;;;;;6.25;3.42;;;22.70;99.90;;;;;;6214180;23;20047;-43
2023/05/31 10:42:50;;;;;;;8.50;3.55;;;22.90;99.90;;;;;;6213481;23;20071;-45
2023/05/31 10:45:21;;;;;;;6.65;3.60;;;22.90;99.90;;;;;;6161921;23;20107;-43
2023/05/31 10:47:57;;;;;;;7.40;3.67;;;23.00;99.90;;;;;;6212761;23;20421;-43
2023/05/31 10:50:23;;;;;;;7.22;4.22;;;23.10;99.90;;;;;;6186578;23;20062;-43
2023/05/31 10:53:07;;;;;;;9.20;3.70;;;23.00;99.90;;;;;;6213097;23;20067;-43
2023/05/31 10:55:42;;;;;;;10.13;4.40;;;23.10;99.90;;;;;;6188488;23;20020;-43
2023/05/31 10:58:28;;;;;;;8.43;3.55;;;23.20;99.90;;;;;;6188782;23;20084;-44
2023/05/31 11:01:01;;;;;;;5.97;3.23;;;23.20;99.90;;;;;;6186485;23;20017;-43
2023/05/31 11:03:29;;;;;;;7.00;3.80;;;23.10;99.90;;;;;;6211654;23;20039;-45
2023/05/31 11:06:00;;;;;;;7.47;3.60;;;23.00;99.90;;;;;;6185561;23;20059;-43
2023/05/31 11:08:27;;;;;;;7.25;3.22;;;22.90;99.90;;;;;;6212488;23;20317;-47
2023/05/31 11:10:52;;;;;;;8.52;3.90;;;23.20;99.90;;;;;;6212994;23;20016;-44
2023/05/31 11:13:19;;;;;;;6.35;2.90;;;23.10;99.90;;;;;;6212116;23;20017;-44
2023/05/31 11:15:46;;;;;;;9.05;3.42;;;23.50;99.90;;;;;;6185942;23;20414;-46
2023/05/31 11:18:22;;;;;;;8.60;3.55;;;23.50;99.90;;;;;;6212291;23;20325;-46
2023/05/31 11:20:47;;;;;;;6.70;3.70;;;23.40;99.90;;;;;;6212276;23;20020;-45
2023/05/31 11:23:19;;;;;;;7.90;3.78;;;23.50;99.90;;;;;;6212588;23;20063;-43
2023/05/31 11:26:14;;;;;;;6.45;3.40;;;23.80;99.90;;;;;;6213984;23;20356;-46
2023/05/31 11:29:03;;;;;;;5.82;3.60;;;23.70;99.90;;;;;;6213751;23;20012;-44
2023/05/31 11:31:58;;;;;;;7.95;3.55;;;23.60;99.50;;;;;;6212774;23;20076;-46
2023/05/31 11:34:26;;;;;;;5.63;3.50;;;23.80;99.60;;;;;;6213387;23;20455;-44
2023/05/31 11:36:52;;;;;;;5.70;3.70;;;23.80;99.90;;;;;;6183907;23;20341;-44
2023/05/31 11:39:19;;;;;;;4.28;3.42;;;23.90;99.30;;;;;;6212801;23;20333;-46
2023/05/31 11:41:45;;;;;;;6.57;3.83;;;23.80;99.50;;;;;;6212214;23;20016;-46
2023/05/31 11:44:12;;;;;;;6.82;3.40;;;23.60;98.90;;;;;;6213524;23;20020;-46
2023/05/31 11:46:41;;;;;;;7.38;3.60;;;23.60;99.60;;;;;;6213538;23;20027;-44
2023/05/31 11:49:11;;;;;;;7.47;3.38;;;23.60;99.30;;;;;;6209882;23;20012;-45
2023/05/31 11:51:38;;;;;;;7.25;3.50;;;23.90;99.90;;;;;;6209701;23;20444;-44
2023/05/31 11:54:04;;;;;;;6.55;3.55;;;23.70;99.40;;;;;;6210742;23;20038;-45
2023/05/31 11:56:32;;;;;;;5.47;3.30;;;23.60;99.40;;;;;;6211473;23;20052;-45
2023/05/31 11:58:59;;;;;;;5.35;3.10;;;23.50;99.50;;;;;;6184907;23;20021;-46
2023/05/31 12:01:25;;;;;;;7.68;3.60;;;23.70;99.90;;;;;;6184938;23;20365;-43
2023/05/31 12:04:00;;;;;;;6.22;3.47;;;23.70;99.50;;;;;;6185099;23;20063;-44
2023/05/31 12:06:26;;;;;;;6.70;3.28;;;23.60;98.80;;;;;;6212306;23;20017;-44
2023/05/31 12:08:52;;;;;;;6.65;3.58;;;23.90;99.10;;;;;;6184362;23;20028;-44
2023/05/31 12:11:19;;;;;;;6.43;3.35;;;24.00;99.40;;;;;;6184548;23;20099;-44
2023/05/31 12:13:44;;;;;;;7.80;3.10;;;24.00;99.30;;;;;;6185021;23;20445;-43
2023/05/31 12:16:10;;;;;;;5.25;3.35;;;24.00;98.40;;;;;;6212538;23;20012;-44
2023/05/31 12:18:36;;;;;;;5.82;2.92;;;24.00;98.70;;;;;;6214638;23;20521;-44
2023/05/31 12:21:11;;;;;;;6.10;3.78;;;23.80;98.90;;;;;;6187253;23;20380;-43
2023/05/31 12:23:57;;;;;;;6.63;3.45;;;23.60;98.60;;;;;;6214501;23;20016;-43
2023/05/31 12:26:26;;;;;;;6.95;3.45;;;23.60;98.60;;;;;;6215360;23;20039;-45
2023/05/31 12:28:52;;;;;;;5.85;3.22;;;23.70;99.60;;;;;;6215737;23;20023;-44
2023/05/31 12:31:22;;;;;;;5.53;3.50;;;23.80;99.90;;;;;;6214897;23;20052;-47
2023/05/31 12:33:58;;;;;;;8.45;3.95;;;23.70;99.70;;;;;;6215419;23;20341;-43
2023/05/31 12:36:23;;;;;;;9.60;3.88;;;23.70;99.90;;;;;;6212899;23;20024;-44
2023/05/31 12:38:56;;;;;;;5.75;3.63;;;23.80;99.90;;;;;;6185598;23;20021;-44
2023/05/31 12:41:22;;;;;;;9.77;4.10;;;23.80;99.90;;;;;;6184559;23;20020;-44
2023/05/31 12:43:48;;;;;;;7.20;3.97;;;23.70;99.90;;;;;;6211818;23;20016;-44
2023/05/31 12:46:18;;;;;;;9.48;4.55;;;23.60;99.90;;;;;;6215104;23;20012;-44
2023/05/31 12:48:50;;;;;;;9.38;3.83;;;23.60;99.90;;;;;;6215908;23;20092;-44